createdAt,value
2023-03-29T00:01:57.400Z,23.60
2023-03-29T00:04:29.373Z,16.60
2023-03-29T00:07:04.602Z,22.20
2023-03-29T00:09:37.212Z,21.00
2023-03-29T00:12:11.355Z,20.30
2023-03-29T00:14:43.166Z,20.40
2023-03-29T00:17:15.016Z,19.60
2023-03-29T00:19:47.684Z,19.40
2023-03-29T00:24:49.980Z,19.10
2023-03-29T00:27:22.096Z,20.60
2023-03-29T00:29:53.996Z,19.90
2023-03-29T00:32:26.346Z,19.30
2023-03-29T00:34:58.241Z,20.50
2023-03-29T00:37:30.796Z,21.30
2023-03-29T00:40:05.210Z,22.40
2023-03-29T00:42:37.385Z,22.10
2023-03-29T00:45:20.323Z,21.30
2023-03-29T00:47:56.993Z,22.00
2023-03-29T00:50:33.300Z,23.10
2023-03-29T00:53:10.939Z,20.90
2023-03-29T00:55:48.240Z,23.40
2023-03-29T00:58:24.637Z,23.70
2023-03-29T01:01:02.636Z,22.10
2023-03-29T01:03:41.389Z,21.50
2023-03-29T01:06:17.821Z,24.10
2023-03-29T01:08:56.758Z,23.90
2023-03-29T01:11:34.129Z,23.50
2023-03-29T01:14:09.378Z,22.60
2023-03-29T01:16:41.453Z,23.40
2023-03-29T01:19:18.281Z,23.90
2023-03-29T01:21:54.407Z,24.40
2023-03-29T01:24:45.547Z,24.30
2023-03-29T01:27:22.851Z,22.70
2023-03-29T01:30:00.335Z,22.40
2023-03-29T01:32:35.863Z,24.20
2023-03-29T01:35:14.818Z,24.70
2023-03-29T01:37:56.681Z,25.20
2023-03-29T01:40:28.841Z,23.20
2023-03-29T01:43:10.825Z,23.60
2023-03-29T01:45:48.906Z,24.90
2023-03-29T01:48:27.070Z,25.20
2023-03-29T01:51:04.540Z,23.80
2023-03-29T01:53:42.411Z,22.40
2023-03-29T01:56:19.236Z,23.70
2023-03-29T01:58:59.093Z,24.20
2023-03-29T02:01:38.163Z,22.90
2023-03-29T02:04:13.928Z,24.40
2023-03-29T02:06:47.900Z,26.80
2023-03-29T02:09:20.966Z,26.30
2023-03-29T02:11:55.113Z,26.10
2023-03-29T02:14:27.621Z,26.20
2023-03-29T02:17:10.334Z,27.60
2023-03-29T02:19:42.450Z,28.70
2023-03-29T02:22:16.627Z,25.30
2023-03-29T02:24:53.278Z,28.30
2023-03-29T02:27:25.964Z,27.60
2023-03-29T02:29:58.108Z,29.00
2023-03-29T02:32:36.106Z,21.80
2023-03-29T02:35:13.951Z,29.20
2023-03-29T02:37:49.434Z,28.10
2023-03-29T02:40:23.639Z,28.70
2023-03-29T02:42:57.564Z,27.50
2023-03-29T02:45:31.559Z,28.00
2023-03-29T02:48:07.788Z,28.60
2023-03-29T02:50:42.098Z,28.90
2023-03-29T02:53:17.989Z,27.70
2023-03-29T02:55:50.826Z,28.90
2023-03-29T03:01:03.147Z,25.60
2023-03-29T03:03:35.855Z,26.40
2023-03-29T03:06:08.822Z,26.50
2023-03-29T03:11:11.188Z,26.20
2023-03-29T03:13:43.274Z,25.20
2023-03-29T03:16:15.589Z,25.60
2023-03-29T03:18:48.805Z,26.10
2023-03-29T03:21:20.994Z,22.90
2023-03-29T03:23:53.511Z,22.00
2023-03-29T03:26:29.972Z,24.60
2023-03-29T03:29:02.331Z,24.90
2023-03-29T03:31:54.037Z,22.70
2023-03-29T03:34:56.107Z,22.30
2023-03-29T03:37:31.698Z,22.30
2023-03-29T03:40:09.089Z,23.70
2023-03-29T03:42:43.580Z,23.90
2023-03-29T03:45:16.612Z,21.80
2023-03-29T03:48:04.729Z,22.20
2023-03-29T03:50:53.331Z,20.70
2023-03-29T03:53:27.167Z,21.90
2023-03-29T03:56:31.835Z,21.70
2023-03-29T03:59:10.410Z,22.60
2023-03-29T04:01:50.490Z,24.10
2023-03-29T04:04:24.990Z,22.40
2023-03-29T04:07:14.129Z,23.00
2023-03-29T04:10:09.165Z,23.90
2023-03-29T04:12:41.443Z,22.20
2023-03-29T04:15:14.399Z,20.40
2023-03-29T04:17:51.427Z,19.20
2023-03-29T04:20:29.837Z,20.60
2023-03-29T04:23:02.027Z,20.80
2023-03-29T04:25:34.167Z,19.70
2023-03-29T04:28:25.131Z,21.00
2023-03-29T04:31:12.506Z,20.10
2023-03-29T04:33:59.815Z,19.80
2023-03-29T04:36:32.677Z,19.50
2023-03-29T04:39:04.827Z,19.80
2023-03-29T04:41:37.101Z,18.80
2023-03-29T04:44:18.384Z,18.50
2023-03-29T04:46:50.361Z,16.90
2023-03-29T04:49:41.358Z,16.30
2023-03-29T04:52:16.536Z,16.70
2023-03-29T04:54:48.589Z,17.10
2023-03-29T04:57:31.102Z,15.20
2023-03-29T05:00:15.604Z,16.80
2023-03-29T05:03:07.495Z,16.40
2023-03-29T05:05:42.278Z,15.20
2023-03-29T05:08:14.361Z,16.40
2023-03-29T05:11:10.822Z,16.00
2023-03-29T05:13:42.778Z,15.80
2023-03-29T05:16:15.896Z,16.10
2023-03-29T05:18:48.399Z,15.70
2023-03-29T05:21:20.581Z,15.70
2023-03-29T05:23:52.440Z,15.80
2023-03-29T05:27:02.774Z,14.80
2023-03-29T05:29:37.475Z,15.20
2023-03-29T05:32:31.972Z,15.20
2023-03-29T05:35:04.102Z,11.20
2023-03-29T05:37:37.379Z,15.40
2023-03-29T05:40:13.199Z,15.30
2023-03-29T05:43:11.060Z,14.50
2023-03-29T05:45:43.177Z,14.70
2023-03-29T05:48:15.319Z,10.50
2023-03-29T05:53:25.149Z,15.90
2023-03-29T05:55:57.144Z,16.50
2023-03-29T05:58:30.773Z,16.70
2023-03-29T06:01:05.517Z,16.50
2023-03-29T06:03:58.979Z,16.50
2023-03-29T06:06:37.197Z,15.00
2023-03-29T06:09:09.503Z,16.40
2023-03-29T06:11:46.594Z,14.60
2023-03-29T06:14:45.603Z,15.70
2023-03-29T06:17:29.254Z,15.50
2023-03-29T06:20:01.552Z,15.10
2023-03-29T06:22:34.280Z,14.40
2023-03-29T06:25:07.146Z,15.90
2023-03-29T06:27:39.433Z,16.10
2023-03-29T06:32:44.860Z,16.50
2023-03-29T06:35:32.680Z,17.20
2023-03-29T06:38:11.164Z,19.10
2023-03-29T06:41:08.577Z,17.60
2023-03-29T06:43:58.903Z,19.70
2023-03-29T06:46:37.604Z,18.10
2023-03-29T06:49:12.881Z,16.90
2023-03-29T06:51:54.008Z,18.20
2023-03-29T06:54:26.978Z,18.60
2023-03-29T06:57:05.743Z,17.50
2023-03-29T06:59:38.510Z,16.70
2023-03-29T07:02:23.868Z,19.20
2023-03-29T07:05:02.214Z,17.60
2023-03-29T07:07:56.860Z,16.70
2023-03-29T07:10:47.522Z,16.00
2023-03-29T07:13:49.005Z,15.80
2023-03-29T07:16:23.170Z,15.60
2023-03-29T07:19:03.772Z,14.40
2023-03-29T07:21:56.052Z,14.60
2023-03-29T07:24:36.482Z,16.20
2023-03-29T07:27:08.701Z,11.60
2023-03-29T07:29:40.629Z,13.90
2023-03-29T07:32:13.077Z,13.00
2023-03-29T07:34:49.187Z,12.70
2023-03-29T07:37:31.231Z,14.70
2023-03-29T07:40:08.875Z,12.90
2023-03-29T07:43:13.729Z,11.30
2023-03-29T07:45:46.849Z,12.60
2023-03-29T07:48:19.696Z,12.80
2023-03-29T07:51:02.748Z,13.60
2023-03-29T07:53:39.903Z,12.50
2023-03-29T07:56:19.592Z,13.30
2023-03-29T07:59:11.815Z,13.40
2023-03-29T08:01:44.658Z,12.70
2023-03-29T08:04:28.317Z,13.40
2023-03-29T08:07:21.033Z,12.40
2023-03-29T08:10:04.764Z,12.00
2023-03-29T08:12:53.697Z,12.10
2023-03-29T08:15:31.232Z,12.70
2023-03-29T08:18:03.386Z,13.30
2023-03-29T08:20:35.599Z,14.40
2023-03-29T08:23:09.093Z,13.90
2023-03-29T08:25:59.597Z,13.60
2023-03-29T08:28:32.209Z,12.80
2023-03-29T08:31:05.716Z,12.90
2023-03-29T08:36:28.774Z,9.60
2023-03-29T08:39:03.469Z,9.90
2023-03-29T08:41:48.454Z,11.40
2023-03-29T08:44:37.066Z,10.30
2023-03-29T08:47:22.000Z,9.70
2023-03-29T08:49:57.356Z,9.40
2023-03-29T08:52:38.566Z,10.10
2023-03-29T08:55:29.409Z,9.30
2023-03-29T08:58:29.101Z,9.50
2023-03-29T09:01:04.923Z,10.20
2023-03-29T09:03:49.497Z,9.10
2023-03-29T09:06:29.704Z,7.90
2023-03-29T09:09:16.489Z,6.20
2023-03-29T09:12:05.339Z,6.30
2023-03-29T09:14:51.173Z,6.20
2023-03-29T09:17:36.867Z,6.30
2023-03-29T09:20:23.828Z,7.80
2023-03-29T09:23:05.528Z,6.40
2023-03-29T09:25:54.437Z,6.90
2023-03-29T09:28:37.191Z,6.90
2023-03-29T09:31:16.741Z,6.80
2023-03-29T09:33:55.738Z,6.40
2023-03-29T09:39:14.531Z,7.00
2023-03-29T09:41:52.229Z,6.50
2023-03-29T09:44:31.181Z,5.80
2023-03-29T09:47:13.493Z,5.60
2023-03-29T09:49:52.196Z,6.10
2023-03-29T09:52:24.806Z,6.10
2023-03-29T09:55:09.207Z,6.40
2023-03-29T09:57:54.394Z,6.40
2023-03-29T10:00:26.876Z,6.40
2023-03-29T10:05:41.502Z,6.80
2023-03-29T10:08:23.514Z,6.40
2023-03-29T10:10:58.378Z,7.30
2023-03-29T10:13:34.077Z,6.50
2023-03-29T10:16:09.643Z,6.60
2023-03-29T10:18:44.227Z,6.70
2023-03-29T10:21:20.315Z,6.30
2023-03-29T10:23:59.747Z,7.10
2023-03-29T10:26:36.148Z,6.10
2023-03-29T10:29:09.576Z,6.90
2023-03-29T10:31:43.229Z,6.00
2023-03-29T10:34:18.157Z,6.00
2023-03-29T10:36:58.391Z,6.40
2023-03-29T10:39:34.984Z,6.50
2023-03-29T10:42:08.602Z,6.20
2023-03-29T10:44:43.709Z,6.80
2023-03-29T10:47:21.495Z,5.50
2023-03-29T10:49:56.984Z,5.60
2023-03-29T10:52:30.404Z,6.10
2023-03-29T10:55:02.701Z,5.50
2023-03-29T10:57:40.770Z,5.70
2023-03-29T11:00:20.539Z,6.00
2023-03-29T11:03:15.870Z,6.90
2023-03-29T11:05:55.750Z,6.00
2023-03-29T11:08:42.879Z,6.20
2023-03-29T11:11:34.369Z,5.90
2023-03-29T11:14:16.191Z,4.90
2023-03-29T11:16:56.885Z,6.00
2023-03-29T11:19:58.015Z,5.60
2023-03-29T11:22:43.030Z,5.80
2023-03-29T11:25:29.831Z,5.80
2023-03-29T11:28:10.790Z,5.40
2023-03-29T11:30:48.101Z,6.20
2023-03-29T11:33:34.198Z,5.80
2023-03-29T11:36:13.454Z,5.40
2023-03-29T11:38:55.234Z,6.30
2023-03-29T11:41:31.449Z,5.20
2023-03-29T11:44:09.756Z,6.00
2023-03-29T11:46:46.076Z,6.20
2023-03-29T11:49:24.507Z,7.50
2023-03-29T11:52:04.113Z,6.20
2023-03-29T11:54:41.398Z,6.60
2023-03-29T11:57:21.103Z,5.00
2023-03-29T12:00:02.158Z,4.50
2023-03-29T12:02:49.875Z,5.20
2023-03-29T12:05:26.203Z,5.90
2023-03-29T12:08:04.982Z,5.00
2023-03-29T12:10:40.111Z,5.10
2023-03-29T12:13:18.855Z,5.30
2023-03-29T12:15:58.478Z,4.90
2023-03-29T12:18:39.515Z,5.30
2023-03-29T12:21:15.345Z,5.20
2023-03-29T12:23:49.940Z,5.90
2023-03-29T12:26:38.012Z,5.60
2023-03-29T12:29:25.083Z,5.00
2023-03-29T12:32:20.506Z,4.70
2023-03-29T12:35:20.093Z,5.10
2023-03-29T12:38:19.696Z,5.30
2023-03-29T12:41:19.485Z,5.00
2023-03-29T12:44:14.623Z,5.30
2023-03-29T12:47:02.327Z,4.60
2023-03-29T12:49:36.948Z,5.20
2023-03-29T12:52:22.907Z,5.40
2023-03-29T12:55:00.539Z,5.40
2023-03-29T12:57:43.411Z,5.40
2023-03-29T13:00:24.445Z,6.00
2023-03-29T13:03:05.652Z,5.50
2023-03-29T13:05:39.255Z,5.10
2023-03-29T13:08:28.003Z,5.40
2023-03-29T13:11:00.572Z,5.80
2023-03-29T13:13:37.281Z,5.70
2023-03-29T13:16:19.659Z,5.30
2023-03-29T13:19:12.683Z,4.80
2023-03-29T13:21:55.146Z,5.60
2023-03-29T13:24:48.047Z,5.80
2023-03-29T13:27:30.351Z,6.10
2023-03-29T13:30:25.715Z,5.60
2023-03-29T13:33:22.617Z,6.00
2023-03-29T13:36:04.589Z,6.10
2023-03-29T13:38:48.674Z,6.40
2023-03-29T13:41:33.525Z,6.30
2023-03-29T13:44:05.925Z,5.60
2023-03-29T13:46:43.633Z,6.20
2023-03-29T13:49:23.909Z,5.90
2023-03-29T13:52:15.909Z,6.70
2023-03-29T13:54:54.663Z,6.90
2023-03-29T13:57:35.979Z,6.20
2023-03-29T14:00:18.079Z,6.50
2023-03-29T14:02:53.002Z,6.60
2023-03-29T14:05:29.902Z,6.00
2023-03-29T14:08:09.813Z,7.60
2023-03-29T14:10:43.546Z,6.30
2023-03-29T14:13:18.126Z,6.10
2023-03-29T14:15:54.756Z,6.30
2023-03-29T14:18:28.580Z,6.10
2023-03-29T14:21:02.650Z,6.40
2023-03-29T14:23:37.694Z,6.70
2023-03-29T14:26:15.890Z,6.10
2023-03-29T14:28:51.420Z,6.10
2023-03-29T14:31:25.224Z,6.20
2023-03-29T14:33:59.341Z,6.50
2023-03-29T14:36:33.737Z,6.20
2023-03-29T14:39:12.013Z,5.70
2023-03-29T14:41:51.054Z,7.10
2023-03-29T14:44:26.021Z,6.10
2023-03-29T14:46:58.677Z,6.00
2023-03-29T14:49:32.089Z,6.30
2023-03-29T14:52:04.761Z,5.40
2023-03-29T14:54:37.882Z,5.40
2023-03-29T14:57:14.740Z,4.70
2023-03-29T14:59:55.666Z,5.10
2023-03-29T15:02:29.722Z,5.80
2023-03-29T15:05:04.732Z,6.10
2023-03-29T15:07:40.090Z,4.60
2023-03-29T15:10:20.828Z,6.60
2023-03-29T15:12:52.989Z,5.70
2023-03-29T15:15:27.306Z,5.00
2023-03-29T15:17:59.989Z,4.40
2023-03-29T15:20:35.648Z,3.80
2023-03-29T15:23:21.981Z,4.50
2023-03-29T15:25:58.829Z,4.20
2023-03-29T15:28:33.669Z,4.20
2023-03-29T15:31:11.941Z,4.30
2023-03-29T15:33:44.801Z,3.70
2023-03-29T15:36:17.640Z,3.80
2023-03-29T15:41:21.433Z,3.90
2023-03-29T15:43:53.968Z,3.90
2023-03-29T15:46:26.338Z,4.20
2023-03-29T15:48:58.325Z,4.10
2023-03-29T15:51:30.501Z,3.20
2023-03-29T15:54:02.447Z,3.80
2023-03-29T15:56:37.032Z,3.30
2023-03-29T15:59:10.036Z,3.20
2023-03-29T16:01:42.548Z,2.70
2023-03-29T16:04:17.304Z,2.20
2023-03-29T16:06:52.774Z,2.20
2023-03-29T16:09:25.714Z,2.70
2023-03-29T16:12:00.364Z,2.50
2023-03-29T16:14:33.875Z,2.70
2023-03-29T16:17:07.209Z,3.20
2023-03-29T16:19:39.615Z,2.90
2023-03-29T16:22:11.505Z,3.00
2023-03-29T16:24:45.997Z,3.20
2023-03-29T16:27:17.897Z,3.00
2023-03-29T16:29:50.076Z,3.30
2023-03-29T16:32:24.839Z,3.60
2023-03-29T16:35:01.513Z,3.60
2023-03-29T16:37:36.204Z,4.20
2023-03-29T16:40:12.433Z,4.50
2023-03-29T16:42:45.138Z,4.40
2023-03-29T16:47:48.709Z,4.70
2023-03-29T16:50:23.239Z,4.50
2023-03-29T16:52:56.401Z,4.00
2023-03-29T16:55:28.464Z,4.10
2023-03-29T16:58:00.600Z,4.80
2023-03-29T17:00:33.934Z,4.40
2023-03-29T17:03:07.905Z,4.10
2023-03-29T17:05:41.704Z,4.30
2023-03-29T17:08:15.430Z,4.30
2023-03-29T17:10:48.106Z,4.60
2023-03-29T17:13:20.587Z,5.90
2023-03-29T17:15:54.391Z,5.50
2023-03-29T17:18:27.804Z,5.30
2023-03-29T17:21:01.567Z,5.90
2023-03-29T17:23:35.192Z,6.10
2023-03-29T17:26:08.457Z,5.70
2023-03-29T17:28:40.817Z,6.00
2023-03-29T17:31:13.004Z,6.40
2023-03-29T17:33:45.034Z,6.80
2023-03-29T17:36:16.987Z,6.50
2023-03-29T17:38:52.399Z,4.30
2023-03-29T17:41:24.585Z,6.10
2023-03-29T17:43:56.540Z,6.20
2023-03-29T17:46:28.552Z,7.00
2023-03-29T17:49:00.824Z,6.50
2023-03-29T17:51:32.970Z,6.00
2023-03-29T17:54:06.834Z,5.90
2023-03-29T17:56:42.893Z,6.70
2023-03-29T17:59:17.648Z,6.30
2023-03-29T18:01:51.289Z,6.60
2023-03-29T18:06:55.064Z,7.00
2023-03-29T18:12:05.281Z,7.30
2023-03-29T18:14:38.123Z,7.80
2023-03-29T18:17:10.361Z,7.60
2023-03-29T18:19:42.688Z,8.30
2023-03-29T18:22:14.708Z,7.90
2023-03-29T18:24:48.170Z,8.00
2023-03-29T18:27:20.575Z,8.00
2023-03-29T18:29:55.177Z,8.60
2023-03-29T18:32:27.440Z,8.00
2023-03-29T18:35:00.060Z,9.30
2023-03-29T18:37:32.200Z,8.50
2023-03-29T18:40:08.022Z,9.40
2023-03-29T18:42:40.396Z,9.50
2023-03-29T18:45:13.974Z,8.90
2023-03-29T18:47:46.913Z,9.60
2023-03-29T18:50:20.683Z,9.20
2023-03-29T18:52:53.025Z,9.10
2023-03-29T18:55:25.485Z,9.40
2023-03-29T18:57:58.593Z,10.10
2023-03-29T19:00:30.679Z,9.40
2023-03-29T19:03:03.166Z,10.10
2023-03-29T19:08:08.977Z,9.00
2023-03-29T19:10:42.054Z,9.60
2023-03-29T19:13:14.094Z,10.00
2023-03-29T19:15:47.609Z,11.10
2023-03-29T19:18:20.259Z,11.20
2023-03-29T19:20:54.071Z,11.40
2023-03-29T19:23:28.401Z,11.10
2023-03-29T19:26:03.598Z,11.80
2023-03-29T19:28:36.550Z,11.00
2023-03-29T19:31:08.670Z,11.60
2023-03-29T19:33:40.878Z,11.80
2023-03-29T19:36:14.368Z,11.20
2023-03-29T19:38:46.977Z,11.50
2023-03-29T19:41:19.490Z,12.70
2023-03-29T19:43:51.460Z,7.90
2023-03-29T19:46:23.483Z,9.70
2023-03-29T19:48:56.221Z,12.20
2023-03-29T19:53:59.629Z,11.90
2023-03-29T19:56:33.140Z,11.30
2023-03-29T19:59:05.080Z,10.20
2023-03-29T20:01:39.377Z,11.30
2023-03-29T20:04:12.009Z,12.60
2023-03-29T20:06:44.885Z,11.40
2023-03-29T20:09:17.121Z,11.90
2023-03-29T20:11:49.309Z,11.30
2023-03-29T20:14:24.143Z,11.70
2023-03-29T20:16:56.428Z,11.00
2023-03-29T20:19:30.160Z,12.10
2023-03-29T20:22:02.193Z,11.40
2023-03-29T20:24:34.741Z,12.80
2023-03-29T20:27:07.369Z,11.80
2023-03-29T20:29:39.358Z,11.70
2023-03-29T20:32:11.221Z,12.00
2023-03-29T20:34:43.319Z,8.00
2023-03-29T20:37:15.616Z,11.80
2023-03-29T20:39:49.438Z,11.60
2023-03-29T20:42:28.678Z,11.10
2023-03-29T20:45:01.454Z,12.70
2023-03-29T20:50:07.787Z,13.00
2023-03-29T20:52:39.790Z,13.10
2023-03-29T20:55:13.350Z,13.10
2023-03-29T20:57:45.508Z,13.10
2023-03-29T21:00:19.708Z,14.80
2023-03-29T21:02:52.248Z,12.80
2023-03-29T21:05:24.140Z,13.50
2023-03-29T21:07:56.853Z,13.10
2023-03-29T21:10:29.774Z,12.90
2023-03-29T21:13:02.640Z,12.80
2023-03-29T21:15:35.249Z,13.00
2023-03-29T21:18:07.863Z,9.60
2023-03-29T21:20:40.272Z,13.00
2023-03-29T21:23:12.077Z,13.40
2023-03-29T21:25:44.338Z,13.70
2023-03-29T21:28:16.228Z,13.90
2023-03-29T21:30:48.274Z,12.30
2023-03-29T21:33:20.535Z,13.90
2023-03-29T21:35:52.935Z,13.40
2023-03-29T21:38:25.166Z,13.10
2023-03-29T21:40:58.221Z,13.90
2023-03-29T21:43:30.840Z,13.80
2023-03-29T21:46:02.692Z,13.00
2023-03-29T21:48:35.128Z,13.40
2023-03-29T21:51:07.975Z,13.00
2023-03-29T21:56:12.108Z,12.70
2023-03-29T21:58:44.413Z,12.80
2023-03-29T22:01:17.320Z,12.60
2023-03-29T22:03:49.124Z,12.60
2023-03-29T22:06:21.913Z,8.30
2023-03-29T22:08:54.644Z,12.20
2023-03-29T22:11:28.571Z,12.30
2023-03-29T22:14:00.831Z,12.30
2023-03-29T22:16:33.138Z,12.60
2023-03-29T22:19:05.388Z,13.80
2023-03-29T22:21:37.580Z,13.90
2023-03-29T22:24:09.738Z,12.90
2023-03-29T22:26:44.871Z,13.30
2023-03-29T22:29:16.795Z,13.20
2023-03-29T22:31:48.753Z,12.20
2023-03-29T22:34:20.719Z,9.50
2023-03-29T22:36:53.081Z,12.50
2023-03-29T22:39:25.799Z,12.90
2023-03-29T22:41:57.652Z,13.30
2023-03-29T22:44:33.803Z,13.80
2023-03-29T22:47:05.740Z,13.00
2023-03-29T22:49:37.695Z,13.60
2023-03-29T22:52:09.641Z,13.70
2023-03-29T22:54:41.404Z,14.70
2023-03-29T22:57:13.242Z,13.20
2023-03-29T22:59:45.372Z,14.40
2023-03-29T23:02:17.974Z,14.30
2023-03-29T23:04:49.794Z,14.70
2023-03-29T23:07:21.718Z,12.20
2023-03-29T23:09:53.767Z,14.80
2023-03-29T23:12:26.987Z,13.80
2023-03-29T23:14:58.982Z,13.90
2023-03-29T23:17:30.565Z,14.60
2023-03-29T23:20:05.807Z,14.00
2023-03-29T23:22:39.625Z,14.60
2023-03-29T23:25:13.199Z,15.20
2023-03-29T23:27:45.663Z,14.70
2023-03-29T23:30:18.522Z,15.10
2023-03-29T23:32:52.382Z,16.20
2023-03-29T23:35:24.453Z,14.30
2023-03-29T23:37:56.340Z,15.40
2023-03-29T23:40:28.752Z,15.60
2023-03-29T23:43:00.484Z,15.40
2023-03-29T23:45:32.462Z,15.60
2023-03-29T23:48:04.601Z,15.20
2023-03-29T23:50:36.573Z,16.10
2023-03-29T23:53:09.165Z,11.80
2023-03-29T23:55:41.321Z,15.60
2023-03-29T23:58:13.170Z,11.50
